Arcadia Lakes, South Carolina
Current Conditions -  °F | °C
As of 10:36 PM on Sunday 21 Dec 2014 (Local Time) from KCUB Reporting Station
Moderate Rain Moderate Rain  
Wind Chill: 48°   Ceiling: 2100
Heat Index: 48°   Visibility: 2.5mi
Dew Point: 45°   Wind: 0mph
Humidity: 89%   Direction: NA
Pressure: 30.17"   Gusts: NA
Location:  34.025°N, 80.9562°W
Report Text: KCUB 220336Z AUTO 00000KT 2 1/2SM RA BR FEW011 OVC021 09/07 A3017 RMK AO2 RAB06 P0004 T00890072
Loading
Personal Weather Stations






























Interactive Weather Map New forecast layout! Learn more

10-Day Weather Forecast

Advertisements
Track Severe Weather on mobile